Time;durP1;ratioP1;P1;durP2;ratioP2;P2;SDS_P1;SDS_P2;PMS_P1;PMS_P2;Temp;Humidity;BMP_temperature;BMP_pressure;BME280_temperature;BME280_humidity;BME280_pressure;Samples;Min_cycle;Max_cycle;Signal;HPM_P1;HPM_P2
2023/09/06 00:00:45;;;;;;;5.53;2.75;;;;;;;22.89;56.70;101802.56;4941095;28;20031;-76
2023/09/06 00:03:11;;;;;;;4.70;2.50;;;;;;;22.89;56.58;101808.72;4940386;28;20449;-76
2023/09/06 00:05:41;;;;;;;4.10;2.45;;;;;;;22.87;56.76;101802.69;4940978;28;20045;-76
2023/09/06 00:08:14;;;;;;;4.45;2.50;;;;;;;22.87;56.67;101805.34;4943043;28;20393;-76
2023/09/06 00:10:40;;;;;;;5.67;3.03;;;;;;;22.89;56.64;101807.88;4944586;29;20443;-76
2023/09/06 00:13:10;;;;;;;5.90;3.22;;;;;;;22.88;56.98;101811.53;4945526;29;20834;-76
2023/09/06 00:15:36;;;;;;;5.75;2.97;;;;;;;22.87;56.78;101801.84;4944854;29;20146;-76
2023/09/06 00:18:03;;;;;;;5.07;2.85;;;;;;;22.87;56.66;101801.84;4944505;28;20102;-76
2023/09/06 00:20:29;;;;;;;4.85;2.72;;;;;;;22.88;56.94;101803.53;4944927;29;20046;-76
2023/09/06 00:23:00;;;;;;;5.22;2.78;;;;;;;22.86;56.59;101805.47;4945212;28;20117;-76
2023/09/06 00:25:27;;;;;;;4.47;2.45;;;;;;;22.85;56.76;101796.66;4944964;28;20039;-76
2023/09/06 00:27:54;;;;;;;4.50;2.05;;;;;;;22.86;56.42;101797.50;4944492;28;20484;-75
2023/09/06 00:30:20;;;;;;;6.97;2.53;;;;;;;22.85;56.63;101794.00;4958444;28;20047;-76
2023/09/06 00:32:46;;;;;;;4.97;2.45;;;;;;;22.84;56.79;101789.66;4943973;28;20801;-76
2023/09/06 00:35:12;;;;;;;6.35;2.50;;;;;;;22.84;56.57;101789.66;4944515;28;20050;-76
2023/09/06 00:37:39;;;;;;;4.13;2.40;;;;;;;22.83;56.35;101788.00;4944676;28;20040;-76
2023/09/06 00:40:19;;;;;;;4.15;2.33;;;;;;;22.83;56.76;101796.81;4943402;28;20512;-75
2023/09/06 00:43:00;;;;;;;7.20;2.47;;;;;;;22.80;56.33;101791.75;4944299;28;20169;-75
2023/09/06 00:45:44;;;;;;;4.20;2.28;;;;;;;22.80;56.56;101799.72;4943991;28;20958;-75
2023/09/06 00:48:14;;;;;;;5.10;2.10;;;;;;;22.82;56.40;101803.06;4944370;28;20159;-75
2023/09/06 00:50:41;;;;;;;4.10;2.17;;;;;;;22.81;56.63;101796.09;4943965;28;20039;-75
2023/09/06 00:53:08;;;;;;;4.55;2.63;;;;;;;22.80;56.44;101799.72;4943975;28;20031;-75
2023/09/06 00:55:37;;;;;;;4.50;2.47;;;;;;;22.81;56.43;101800.56;4944201;28;20066;-75
2023/09/06 00:58:05;;;;;;;4.75;2.30;;;;;;;22.80;56.17;101799.72;4942948;29;20082;-75
2023/09/06 01:00:31;;;;;;;4.35;2.40;;;;;;;22.80;56.28;101801.53;4943371;29;20059;-74
2023/09/06 01:02:56;;;;;;;4.00;2.10;;;;;;;22.80;56.27;101804.22;4944253;29;20039;-74
2023/09/06 01:05:26;;;;;;;4.45;2.40;;;;;;;22.79;56.45;101807.81;4943678;29;20031;-75
2023/09/06 01:07:58;;;;;;;3.95;2.30;;;;;;;22.77;56.61;101797.31;4942957;28;20051;-76
2023/09/06 01:10:23;;;;;;;4.25;2.30;;;;;;;22.79;56.52;101805.16;4942751;29;20098;-75
2023/09/06 01:12:49;;;;;;;4.93;2.30;;;;;;;22.78;56.59;101804.34;4942557;29;20166;-76
2023/09/06 01:15:14;;;;;;;4.65;2.10;;;;;;;22.78;56.61;101804.34;4959017;28;20058;-76
2023/09/06 01:17:43;;;;;;;4.13;1.90;;;;;;;22.79;56.26;101805.16;4944025;29;20377;-76
2023/09/06 01:20:36;;;;;;;4.88;2.17;;;;;;;22.77;56.53;101807.13;4943314;28;20027;-75
2023/09/06 01:23:48;;;;;;;5.32;2.35;;;;;;;22.78;56.36;101800.81;4956152;28;20062;-75
2023/09/06 01:26:15;;;;;;;4.32;2.40;;;;;;;22.79;56.33;101794.53;4944381;28;20046;-76
2023/09/06 01:28:40;;;;;;;4.03;2.47;;;;;;;22.77;56.53;101797.31;4943517;28;20488;-75
2023/09/06 01:31:06;;;;;;;5.22;2.50;;;;;;;22.77;56.09;101799.16;4943253;28;20043;-76
2023/09/06 01:33:31;;;;;;;4.45;2.30;;;;;;;22.77;56.52;101805.31;4943996;28;20811;-75
2023/09/06 01:35:57;;;;;;;3.88;2.20;;;;;;;22.75;56.48;101803.78;4942690;28;20031;-76
2023/09/06 01:38:23;;;;;;;4.63;2.53;;;;;;;22.77;56.17;101809.78;4944216;28;20511;-75
2023/09/06 01:40:48;;;;;;;4.30;2.20;;;;;;;22.76;56.44;101811.56;4943108;28;20042;-75
2023/09/06 01:43:13;;;;;;;4.32;2.40;;;;;;;22.75;56.45;101809.91;4943089;28;20126;-76
2023/09/06 01:45:52;;;;;;;5.93;2.47;;;;;;;22.74;56.44;101808.22;4943125;29;20070;-75
2023/09/06 01:48:19;;;;;;;4.00;2.25;;;;;;;22.75;56.18;101806.44;4943549;28;20031;-75
2023/09/06 01:50:44;;;;;;;4.38;2.22;;;;;;;22.75;56.20;101809.91;4943019;28;20031;-75
2023/09/06 01:53:10;;;;;;;4.10;2.35;;;;;;;22.75;56.16;101809.91;4943429;28;20074;-75
2023/09/06 01:55:35;;;;;;;4.55;3.25;;;;;;;22.75;56.29;101809.09;4943055;29;20820;-76
2023/09/06 01:58:03;;;;;;;4.07;2.33;;;;;;;22.73;56.11;101809.22;4943450;29;20540;-75
2023/09/06 02:00:28;;;;;;;4.50;2.30;;;;;;;22.74;56.34;101813.53;4943235;28;20043;-76
2023/09/06 02:02:57;;;;;;;5.82;2.45;;;;;;;22.73;56.13;101813.66;4942862;28;20489;-75
2023/09/06 02:05:23;;;;;;;3.72;2.20;;;;;;;22.73;56.45;101817.19;4943106;29;20043;-75
2023/09/06 02:07:49;;;;;;;3.58;2.13;;;;;;;22.72;56.08;101810.19;4942718;28;20496;-75
2023/09/06 02:10:15;;;;;;;4.05;2.20;;;;;;;22.73;56.26;101811.88;4942273;28;20042;-76
2023/09/06 02:12:40;;;;;;;3.95;2.08;;;;;;;22.73;56.41;101814.53;4942360;28;20485;-75
2023/09/06 02:15:13;;;;;;;4.00;2.30;;;;;;;22.72;56.42;101807.53;4943170;29;20101;-75
2023/09/06 02:17:42;;;;;;;4.32;2.20;;;;;;;22.73;56.21;101805.69;4942048;29;20039;-75
2023/09/06 02:20:20;;;;;;;5.13;2.50;;;;;;;22.72;56.13;101807.53;4942614;28;20066;-75
2023/09/06 02:22:56;;;;;;;4.30;2.40;;;;;;;22.71;56.24;101813.78;4942933;28;20066;-75
2023/09/06 02:25:24;;;;;;;4.10;2.22;;;;;;;22.71;56.40;101810.31;4942459;29;20057;-75
2023/09/06 02:27:50;;;;;;;4.00;2.47;;;;;;;22.72;56.33;101812.00;4942637;28;20028;-75
2023/09/06 02:30:15;;;;;;;4.78;2.28;;;;;;;22.71;56.31;101805.00;4942067;28;20037;-75
2023/09/06 02:32:40;;;;;;;4.75;2.17;;;;;;;22.71;56.40;101812.97;4941868;28;20034;-75
2023/09/06 02:35:07;;;;;;;4.47;2.53;;;;;;;22.64;56.48;101810.00;4942662;28;20035;-76
2023/09/06 02:37:35;;;;;;;5.00;2.33;;;;;;;22.70;56.22;101816.59;4942257;28;20039;-75
2023/09/06 02:40:06;;;;;;;3.70;2.10;;;;;;;22.70;56.44;101819.25;4941659;29;20031;-75
2023/09/06 02:42:32;;;;;;;3.70;2.20;;;;;;;22.69;56.25;101818.41;4942534;28;20039;-75
2023/09/06 02:44:57;;;;;;;6.72;2.40;;;;;;;22.69;56.62;101818.41;4942170;28;20031;-76
2023/09/06 02:47:28;;;;;;;4.53;2.58;;;;;;;22.70;56.28;101820.09;4942525;28;20039;-75
2023/09/06 02:49:55;;;;;;;4.45;2.55;;;;;;;22.70;56.26;101811.28;4942363;28;20122;-74
2023/09/06 02:52:30;;;;;;;5.07;3.03;;;;;;;22.67;56.10;101815.06;4941626;29;20031;-75
2023/09/06 02:54:59;;;;;;;5.03;2.58;;;;;;;22.67;56.32;101817.72;4942595;28;20033;-75
2023/09/06 02:57:26;;;;;;;4.00;2.28;;;;;;;22.68;56.23;101824.69;4942413;28;20047;-75
2023/09/06 02:59:52;;;;;;;5.57;2.40;;;;;;;22.67;56.39;101820.38;4941366;28;20031;-75
2023/09/06 03:02:22;;;;;;;4.38;2.50;;;;;;;22.66;56.21;101816.00;4940911;28;20046;-75
2023/09/06 03:04:57;;;;;;;4.03;2.20;;;;;;;22.68;56.29;101823.84;4941492;28;20488;-75
2023/09/06 03:07:23;;;;;;;5.25;2.35;;;;;;;22.66;56.13;101823.97;4941901;28;20067;-74
2023/09/06 03:09:49;;;;;;;5.72;2.42;;;;;;;22.67;56.33;101827.47;4941804;28;20127;-76
2023/09/06 03:12:16;;;;;;;4.75;2.35;;;;;;;22.66;56.25;101826.63;4941920;28;20105;-76
2023/09/06 03:14:44;;;;;;;5.00;2.40;;;;;;;22.66;56.04;101821.31;4941197;28;20031;-76
2023/09/06 03:17:13;;;;;;;5.32;2.53;;;;;;;22.65;56.22;101819.63;4941381;28;20062;-76
2023/09/06 03:19:41;;;;;;;4.78;2.20;;;;;;;22.66;56.06;101818.66;4941567;28;20154;-75
2023/09/06 03:22:09;;;;;;;4.55;2.28;;;;;;;22.62;56.20;101811.91;4941331;28;20027;-76
2023/09/06 03:24:40;;;;;;;4.40;2.40;;;;;;;22.64;56.44;101826.78;4941900;28;20141;-75
2023/09/06 03:27:07;;;;;;;5.45;2.42;;;;;;;22.65;56.28;101830.25;4941094;28;20031;-75
2023/09/06 03:29:34;;;;;;;3.90;2.10;;;;;;;22.64;56.12;101825.94;4941808;28;20058;-76
2023/09/06 03:31:59;;;;;;;4.57;2.50;;;;;;;22.64;56.21;101825.94;4941032;28;20035;-76
2023/09/06 03:34:24;;;;;;;4.25;2.22;;;;;;;22.63;56.30;101830.38;4941238;28;20050;-75
2023/09/06 03:37:10;;;;;;;3.88;2.20;;;;;;;22.63;55.76;101830.38;4941282;29;20303;-76
2023/09/06 03:39:40;;;;;;;4.40;2.33;;;;;;;22.64;55.84;101828.59;4941850;29;20042;-76
2023/09/06 03:42:09;;;;;;;4.70;2.50;;;;;;;22.64;56.33;101826.78;4940608;28;20067;-76
2023/09/06 03:44:38;;;;;;;3.95;1.98;;;;;;;22.63;55.91;101827.72;4941753;28;20045;-76
2023/09/06 03:47:05;;;;;;;4.28;2.20;;;;;;;22.62;56.01;101828.72;4941350;28;20468;-74
2023/09/06 03:49:35;;;;;;;4.25;2.25;;;;;;;22.62;55.98;101827.84;4940768;28;20035;-75
2023/09/06 03:52:01;;;;;;;6.40;2.55;;;;;;;22.62;55.98;101822.53;4955510;28;20041;-76
2023/09/06 03:54:26;;;;;;;4.45;2.28;;;;;;;22.61;55.97;101827.03;4941270;28;20031;-75
2023/09/06 03:56:53;;;;;;;3.90;2.10;;;;;;;22.62;55.80;101831.38;4940357;29;20118;-75
2023/09/06 03:59:19;;;;;;;3.92;2.17;;;;;;;22.61;56.01;101829.69;4941545;28;21412;-74
2023/09/06 04:01:45;;;;;;;4.07;2.22;;;;;;;22.62;56.00;101841.16;4940752;28;20050;-74
2023/09/06 04:04:12;;;;;;;4.80;2.42;;;;;;;22.61;55.75;101839.47;4940498;28;20031;-75
2023/09/06 04:06:38;;;;;;;4.45;2.40;;;;;;;22.61;55.58;101837.66;4955774;28;20182;-75
2023/09/06 04:09:05;;;;;;;4.38;2.08;;;;;;;22.61;56.17;101842.13;4940924;28;20122;-76
2023/09/06 04:11:31;;;;;;;4.07;2.22;;;;;;;22.60;55.76;101835.13;4941099;28;20075;-75
2023/09/06 04:13:56;;;;;;;4.38;2.50;;;;;;;22.60;55.81;101838.63;4941260;29;20489;-76
2023/09/06 04:16:22;;;;;;;4.65;2.22;;;;;;;22.60;55.61;101840.44;4940347;28;20081;-75
2023/09/06 04:18:48;;;;;;;4.30;2.35;;;;;;;22.60;55.89;101841.28;4940753;28;20030;-75
2023/09/06 04:21:13;;;;;;;3.90;2.30;;;;;;;22.60;55.76;101845.75;4940992;28;20035;-75
2023/09/06 04:23:39;;;;;;;4.45;2.35;;;;;;;22.59;56.09;101847.56;4940368;28;20109;-75
2023/09/06 04:26:06;;;;;;;3.60;2.10;;;;;;;22.59;55.80;101838.78;4940857;28;20476;-75
2023/09/06 04:28:31;;;;;;;3.95;2.20;;;;;;;22.58;56.06;101843.22;4940969;28;20704;-75
2023/09/06 04:30:58;;;;;;;4.35;2.35;;;;;;;22.59;55.80;101852.06;4939782;28;20050;-75
2023/09/06 04:33:26;;;;;;;4.38;2.53;;;;;;;22.59;55.46;101854.72;4941319;28;20121;-75
2023/09/06 04:35:51;;;;;;;5.18;2.53;;;;;;;22.59;55.80;101852.88;4940187;29;20035;-75
2023/09/06 04:38:18;;;;;;;4.30;2.40;;;;;;;22.58;55.35;101853.03;4940097;28;20147;-76
2023/09/06 04:40:46;;;;;;;4.30;2.28;;;;;;;22.58;55.47;101845.06;4940539;28;20081;-76
2023/09/06 04:43:13;;;;;;;3.90;2.45;;;;;;;22.57;55.78;101849.53;4940588;28;20035;-76
2023/09/06 04:45:39;;;;;;;5.15;2.10;;;;;;;22.57;55.78;101852.19;4940634;28;20031;-76
2023/09/06 04:48:09;;;;;;;4.30;2.42;;;;;;;22.56;55.69;101855.81;4940850;28;20028;-76
2023/09/06 04:50:39;;;;;;;4.53;2.25;;;;;;;22.56;55.64;101852.31;4940432;28;20070;-77
2023/09/06 04:53:05;;;;;;;4.68;2.38;;;;;;;22.56;55.53;101863.78;4941146;28;20067;-74
2023/09/06 04:55:52;;;;;;;4.25;2.40;;;;;;;22.56;55.84;101862.94;4945845;28;20039;-75
2023/09/06 04:58:18;;;;;;;5.97;2.20;;;;;;;22.56;55.73;101866.44;4949494;28;20038;-76
2023/09/06 05:00:46;;;;;;;4.38;2.33;;;;;;;22.56;55.63;101869.09;4948998;29;20047;-74
2023/09/06 05:03:12;;;;;;;6.07;2.72;;;;;;;22.56;55.66;101861.13;4944534;29;20066;-75
2023/09/06 05:05:41;;;;;;;7.35;2.53;;;;;;;22.56;55.70;101870.91;4943524;28;20628;-75
2023/09/06 05:08:07;;;;;;;3.95;2.22;;;;;;;22.56;55.78;101873.56;4944427;29;20047;-75
2023/09/06 05:10:35;;;;;;;4.13;2.28;;;;;;;22.55;55.70;101875.38;4944316;28;20598;-76
2023/09/06 05:13:01;;;;;;;4.30;2.40;;;;;;;22.56;55.74;101870.91;4943669;28;20515;-75
2023/09/06 05:15:26;;;;;;;4.32;2.40;;;;;;;22.55;55.86;101878.03;4943886;28;20051;-75
2023/09/06 05:17:51;;;;;;;5.15;2.88;;;;;;;22.55;55.75;101880.69;4943851;28;20069;-76
2023/09/06 05:20:30;;;;;;;5.65;2.60;;;;;;;22.54;55.40;101878.16;4943639;28;20102;-75
2023/09/06 05:22:58;;;;;;;5.28;2.40;;;;;;;22.55;55.39;101882.50;4944007;28;20034;-76
2023/09/06 05:25:24;;;;;;;6.95;2.55;;;;;;;22.55;55.64;101885.16;4943844;28;20098;-76
2023/09/06 05:27:50;;;;;;;5.68;2.20;;;;;;;22.54;55.85;101886.13;4943344;28;20077;-76
2023/09/06 05:30:15;;;;;;;5.65;2.47;;;;;;;22.54;55.76;101889.63;4944062;28;20435;-75
2023/09/06 05:32:42;;;;;;;5.00;2.55;;;;;;;22.55;55.83;101885.16;4943535;28;20508;-75
2023/09/06 05:35:08;;;;;;;4.97;2.80;;;;;;;22.53;55.53;101885.28;4940975;29;20086;-75
2023/09/06 05:37:33;;;;;;;4.82;2.55;;;;;;;22.54;55.36;101891.44;4943552;28;20050;-75
2023/09/06 05:39:58;;;;;;;5.50;2.70;;;;;;;22.55;55.58;101895.78;4942486;28;20039;-76
2023/09/06 05:42:24;;;;;;;4.13;2.20;;;;;;;22.54;55.64;101897.59;4942527;28;20043;-76
2023/09/06 05:44:49;;;;;;;6.10;2.93;;;;;;;22.54;55.60;101899.41;4943314;28;20082;-76
2023/09/06 05:47:14;;;;;;;5.00;2.20;;;;;;;22.54;55.48;101900.25;4943058;28;20947;-79
2023/09/06 05:49:40;;;;;;;5.28;2.78;;;;;;;22.55;55.64;101893.97;4943488;28;20038;-80
2023/09/06 05:52:06;;;;;;;5.80;2.83;;;;;;;22.60;55.69;101897.06;4943683;28;20046;-78
2023/09/06 05:54:31;;;;;;;4.85;2.83;;;;;;;22.63;56.07;101898.63;4944068;29;20039;-74
2023/09/06 05:56:56;;;;;;;6.13;2.92;;;;;;;22.64;56.16;101900.31;4941371;28;20547;-77
2023/09/06 05:59:23;;;;;;;5.88;2.67;;;;;;;22.65;55.84;101904.66;4943911;28;20089;-77
2023/09/06 06:01:49;;;;;;;5.90;2.83;;;;;;;22.64;56.05;101895.00;4942251;28;20094;-75
2023/09/06 06:04:14;;;;;;;7.47;2.78;;;;;;;22.64;56.30;101900.31;4943645;28;20035;-75
2023/09/06 06:06:42;;;;;;;4.95;2.80;;;;;;;22.63;56.02;101902.13;4942545;28;20042;-77
2023/09/06 06:09:11;;;;;;;4.80;2.60;;;;;;;22.63;56.39;101896.81;4942072;29;20039;-76
2023/09/06 06:11:40;;;;;;;6.25;2.83;;;;;;;22.60;56.61;101898.88;4942963;28;20492;-75
2023/09/06 06:14:06;;;;;;;5.97;3.08;;;;;;;22.61;56.30;101892.63;4943156;28;20122;-76
2023/09/06 06:16:32;;;;;;;5.00;3.00;;;;;;;22.63;56.72;101907.44;4943245;28;20138;-76
2023/09/06 06:18:57;;;;;;;6.70;3.13;;;;;;;22.62;56.71;101897.78;4943405;28;20042;-78
2023/09/06 06:21:24;;;;;;;4.60;2.67;;;;;;;22.63;56.65;101902.13;4943210;29;20039;-77
2023/09/06 06:23:49;;;;;;;5.13;2.90;;;;;;;22.64;56.91;101913.63;4942848;28;20050;-77
2023/09/06 06:26:19;;;;;;;8.48;3.03;;;;;;;22.61;56.72;101917.34;4943212;28;20408;-76
2023/09/06 06:28:45;;;;;;;7.00;3.08;;;;;;;22.59;56.94;101910.50;4942425;28;20298;-77
2023/09/06 06:31:11;;;;;;;5.60;2.90;;;;;;;22.60;56.73;101918.31;4942716;28;20035;-78
2023/09/06 06:33:38;;;;;;;5.47;2.58;;;;;;;22.60;56.78;101918.31;4943038;28;20035;-74
2023/09/06 06:36:06;;;;;;;6.43;3.00;;;;;;;22.60;56.73;101912.16;4943629;28;20042;-76
2023/09/06 06:38:32;;;;;;;5.32;2.50;;;;;;;22.62;56.92;101918.19;4942889;28;20043;-77
2023/09/06 06:40:57;;;;;;;5.07;2.70;;;;;;;22.61;57.08;101917.34;4943352;29;20069;-80
2023/09/06 06:43:23;;;;;;;5.00;2.60;;;;;;;22.62;57.34;101918.19;4957928;28;20031;-75
2023/09/06 06:45:56;;;;;;;4.93;2.53;;;;;;;22.63;57.24;101922.53;4942545;28;20093;-78
2023/09/06 06:48:22;;;;;;;5.13;2.90;;;;;;;22.63;57.19;101926.03;4940748;29;20043;-77
2023/09/06 06:50:48;;;;;;;5.00;2.75;;;;;;;22.68;57.00;101924.81;4942044;28;20058;-77
2023/09/06 06:53:13;;;;;;;5.32;2.83;;;;;;;22.66;57.34;101924.13;4942516;29;20432;-77
2023/09/06 06:55:39;;;;;;;6.05;2.45;;;;;;;22.66;57.36;101932.09;4942455;28;20035;-77
2023/09/06 06:58:07;;;;;;;5.00;2.65;;;;;;;22.66;57.16;101932.91;4941550;29;20039;-77
2023/09/06 07:00:34;;;;;;;9.15;2.67;;;;;;;22.66;57.10;101930.25;4941302;29;20039;-75
2023/09/06 07:02:59;;;;;;;6.03;2.65;;;;;;;22.66;57.24;101935.56;4942412;28;20054;-75
2023/09/06 07:05:25;;;;;;;5.07;2.60;;;;;;;22.66;57.28;101935.56;4942661;28;20176;-78
2023/09/06 07:07:50;;;;;;;4.25;2.38;;;;;;;22.66;57.16;101940.88;4942467;28;20034;-77
2023/09/06 07:10:16;;;;;;;5.13;2.33;;;;;;;22.67;57.30;101941.72;4943008;29;20046;-77
2023/09/06 07:12:41;;;;;;;5.50;2.40;;;;;;;22.68;57.12;101936.28;4940922;28;20396;-77
2023/09/06 07:15:07;;;;;;;6.10;2.95;;;;;;;22.68;57.40;101935.44;4942497;28;20039;-77
2023/09/06 07:17:34;;;;;;;4.60;2.35;;;;;;;22.70;57.13;101936.16;4957675;28;20087;-77
2023/09/06 07:19:59;;;;;;;5.60;2.40;;;;;;;22.70;57.48;101933.50;4956468;28;20591;-77
2023/09/06 07:22:25;;;;;;;5.47;2.50;;;;;;;22.70;57.26;101934.34;4942435;29;20070;-77
2023/09/06 07:24:51;;;;;;;4.75;2.78;;;;;;;22.71;57.37;101930.72;4942332;28;20204;-78
2023/09/06 07:27:16;;;;;;;4.40;2.40;;;;;;;22.72;57.20;101936.88;4942490;29;20113;-76
2023/09/06 07:29:41;;;;;;;4.80;2.40;;;;;;;22.72;57.26;101939.53;4942485;28;20139;-78
2023/09/06 07:32:07;;;;;;;5.28;2.40;;;;;;;22.71;57.40;101932.53;4957056;28;20031;-77
2023/09/06 07:34:32;;;;;;;4.88;2.53;;;;;;;22.73;57.08;101936.75;4939968;28;20507;-76
2023/09/06 07:36:58;;;;;;;4.55;2.45;;;;;;;22.81;57.19;101928.13;4955610;28;20122;-75
2023/09/06 07:39:23;;;;;;;5.32;2.40;;;;;;;22.83;57.24;101932.34;4940098;28;20031;-71
2023/09/06 07:41:50;;;;;;;5.07;2.45;;;;;;;22.86;57.17;101938.34;4940562;29;20031;-73
2023/09/06 07:44:17;;;;;;;5.50;2.63;;;;;;;22.87;57.47;101948.03;4940896;28;20545;-70
2023/09/06 07:46:48;;;;;;;5.53;2.45;;;;;;;22.87;57.15;101932.91;4940616;28;20130;-79
2023/09/06 07:49:14;;;;;;;6.00;2.50;;;;;;;22.90;57.26;101934.47;4940747;28;20086;-73
2023/09/06 07:51:39;;;;;;;5.05;2.50;;;;;;;22.93;57.14;101939.53;4940990;28;20551;-75
2023/09/06 07:54:04;;;;;;;5.75;2.40;;;;;;;22.96;57.21;101944.59;4940505;29;20042;-77
2023/09/06 07:56:29;;;;;;;6.10;2.53;;;;;;;22.95;56.90;101940.25;4940462;29;20037;-81
2023/09/06 07:58:55;;;;;;;5.75;2.65;;;;;;;22.96;56.95;101944.59;4939945;28;20178;-74
2023/09/06 08:01:20;;;;;;;7.00;2.70;;;;;;;22.97;56.96;101946.25;4940816;28;20384;-83
2023/09/06 08:03:46;;;;;;;7.20;2.55;;;;;;;22.98;57.33;101948.78;4941518;28;20037;-75
2023/09/06 08:06:12;;;;;;;4.63;2.50;;;;;;;22.99;57.24;101942.50;4942795;29;20749;-75
2023/09/06 08:08:37;;;;;;;5.07;2.50;;;;;;;23.01;57.25;101953.84;4940720;28;20507;-75
2023/09/06 08:11:04;;;;;;;7.22;2.63;;;;;;;23.03;56.94;101947.56;4941685;29;20039;-76
2023/09/06 08:13:29;;;;;;;7.18;2.58;;;;;;;23.04;57.06;101950.09;4943581;28;20035;-76
2023/09/06 08:15:54;;;;;;;5.25;2.60;;;;;;;23.05;57.25;101951.78;4941790;28;20110;-74
2023/09/06 08:18:20;;;;;;;4.72;2.47;;;;;;;23.06;56.83;101948.16;4941746;29;20046;-73
2023/09/06 08:20:45;;;;;;;5.65;2.40;;;;;;;23.07;56.80;101952.50;4941256;28;20421;-75
2023/09/06 08:23:10;;;;;;;4.65;2.30;;;;;;;23.08;57.31;101951.56;4941734;29;20058;-74
2023/09/06 08:25:36;;;;;;;5.15;2.28;;;;;;;23.08;56.91;101951.56;4942108;29;20042;-75
2023/09/06 08:28:01;;;;;;;4.53;2.50;;;;;;;23.10;56.95;101946.94;4942744;28;20485;-73
2023/09/06 08:30:26;;;;;;;4.07;2.10;;;;;;;23.12;57.14;101952.97;4945067;29;20027;-83
2023/09/06 08:32:52;;;;;;;4.25;2.30;;;;;;;23.14;56.97;101947.53;4944842;28;20043;-74
2023/09/06 08:35:18;;;;;;;5.88;2.78;;;;;;;23.11;56.88;101943.31;4944996;28;20065;-73
2023/09/06 08:37:45;;;;;;;5.15;2.55;;;;;;;23.11;56.86;101948.63;4945459;29;20564;-74
2023/09/06 08:40:12;;;;;;;6.03;2.50;;;;;;;23.13;57.17;101943.16;4946121;28;20043;-72
2023/09/06 08:42:38;;;;;;;4.20;2.28;;;;;;;23.15;57.05;101943.91;4946141;29;20098;-73
2023/09/06 08:45:09;;;;;;;4.10;2.30;;;;;;;23.15;57.04;101944.75;4945267;29;20441;-73
2023/09/06 08:47:37;;;;;;;5.05;2.30;;;;;;;23.16;56.84;101945.56;4945038;29;20038;-78
2023/09/06 08:50:03;;;;;;;5.28;2.25;;;;;;;23.15;57.18;101938.59;4947996;28;20440;-72
2023/09/06 08:52:30;;;;;;;4.13;2.40;;;;;;;23.16;56.98;101942.91;4946203;28;20914;-77
2023/09/06 08:54:55;;;;;;;3.83;1.83;;;;;;;23.18;56.96;101952.44;4943361;29;20584;-72
2023/09/06 08:57:21;;;;;;;3.97;2.35;;;;;;;23.20;56.67;101948.84;4944107;29;20038;-73
2023/09/06 08:59:47;;;;;;;4.97;2.30;;;;;;;23.21;56.78;101946.03;4946308;28;20042;-78
2023/09/06 09:02:14;;;;;;;5.90;2.40;;;;;;;23.14;56.88;101937.72;4949094;28;20448;-74
2023/09/06 09:04:41;;;;;;;5.18;2.10;;;;;;;23.20;56.99;101947.00;4945506;28;20461;-74
2023/09/06 09:07:11;;;;;;;4.55;2.10;;;;;;;23.19;57.06;101947.97;4945315;28;20031;-78
2023/09/06 09:09:55;;;;;;;5.30;2.67;;;;;;;23.21;56.96;101948.69;4946227;29;20090;-81
2023/09/06 09:12:25;;;;;;;4.53;2.40;;;;;;;23.22;57.02;101942.38;4945666;29;20404;-76
2023/09/06 09:14:50;;;;;;;4.63;2.17;;;;;;;23.23;56.75;101945.91;4948506;29;20044;-80
2023/09/06 09:17:19;;;;;;;5.47;2.28;;;;;;;23.23;56.74;101945.91;4945323;29;20062;-78
2023/09/06 09:19:49;;;;;;;4.80;2.40;;;;;;;23.22;56.95;101942.38;4944366;29;20035;-73
2023/09/06 09:22:15;;;;;;;4.75;2.25;;;;;;;23.24;56.85;101947.56;4944879;29;20099;-74
2023/09/06 09:24:41;;;;;;;4.13;2.10;;;;;;;23.32;56.54;101951.28;4944876;28;20036;-75
2023/09/06 09:27:09;;;;;;;4.40;1.92;;;;;;;23.36;56.54;101954.50;4945237;29;20038;-84
2023/09/06 09:29:35;;;;;;;4.05;1.98;;;;;;;23.37;56.58;101945.56;4946061;28;20496;-78
2023/09/06 09:32:05;;;;;;;5.18;2.38;;;;;;;23.38;56.63;101949.06;4945485;28;20093;-77
2023/09/06 09:34:31;;;;;;;4.20;1.90;;;;;;;23.38;56.84;101946.38;4946607;28;20031;-79
2023/09/06 09:36:57;;;;;;;3.47;2.05;;;;;;;23.36;56.67;101949.19;4945560;28;20150;-78
2023/09/06 09:39:26;;;;;;;6.40;2.10;;;;;;;23.32;56.55;101939.78;4944347;28;20118;-74
2023/09/06 09:41:52;;;;;;;5.28;2.40;;;;;;;23.32;56.49;101942.44;4942706;28;20086;-74
2023/09/06 09:44:19;;;;;;;7.80;2.47;;;;;;;23.29;56.69;101946.22;4945261;28;20035;-74
2023/09/06 09:46:46;;;;;;;4.45;2.20;;;;;;;23.30;57.04;101937.25;4946640;28;20074;-77
2023/09/06 09:49:12;;;;;;;3.70;2.00;;;;;;;23.32;57.10;101937.13;4947210;28;20035;-75
2023/09/06 09:51:39;;;;;;;4.47;2.20;;;;;;;23.32;57.02;101934.44;4944816;28;20394;-73
2023/09/06 09:54:05;;;;;;;3.90;2.20;;;;;;;23.31;56.81;101933.63;4945479;28;20027;-74
2023/09/06 09:56:34;;;;;;;3.97;2.03;;;;;;;23.30;56.53;101936.41;4940787;28;20031;-79
2023/09/06 09:59:04;;;;;;;4.93;2.20;;;;;;;23.29;56.83;101943.56;4941892;28;20070;-79
2023/09/06 10:01:31;;;;;;;3.80;2.00;;;;;;;23.34;56.94;101940.50;4943030;29;20121;-81
2023/09/06 10:04:00;;;;;;;6.30;2.42;;;;;;;23.32;57.10;101932.66;4944871;29;20489;-81
2023/09/06 10:06:32;;;;;;;4.70;2.25;;;;;;;23.31;57.15;101935.44;4945062;28;20031;-77
2023/09/06 10:09:07;;;;;;;3.55;1.95;;;;;;;23.31;57.13;101936.28;4945591;28;20031;-78
2023/09/06 10:11:46;;;;;;;4.40;1.90;;;;;;;23.30;57.13;101933.75;4947222;29;20041;-77
2023/09/06 10:14:12;;;;;;;4.10;2.10;;;;;;;23.31;56.76;101936.28;4946218;28;20400;-78
2023/09/06 10:16:38;;;;;;;4.07;2.08;;;;;;;23.29;57.25;101935.56;4946181;29;20211;-76
2023/09/06 10:19:03;;;;;;;4.80;2.50;;;;;;;23.29;57.01;101927.59;4946685;28;20035;-78
2023/09/06 10:21:30;;;;;;;4.22;2.30;;;;;;;23.28;56.84;101925.06;4945269;28;20500;-82
2023/09/06 10:23:56;;;;;;;3.80;2.13;;;;;;;23.27;57.27;101928.69;4942799;29;20119;-74
2023/09/06 10:26:34;;;;;;;6.22;2.10;;;;;;;23.27;57.39;101928.69;4943956;29;20031;-78
2023/09/06 10:29:00;;;;;;;3.70;1.90;;;;;;;23.28;57.35;101923.25;4945833;28;20046;-77
2023/09/06 10:31:59;;;;;;;5.07;2.30;;;;;;;23.30;57.21;101920.47;4946040;29;20086;-78
2023/09/06 10:34:25;;;;;;;4.25;2.10;;;;;;;23.30;57.16;101926.59;4943337;28;20162;-74
2023/09/06 10:36:51;;;;;;;3.88;2.00;;;;;;;23.31;57.15;101922.16;4943721;28;21019;-79
2023/09/06 10:39:18;;;;;;;4.47;2.20;;;;;;;23.28;57.17;101927.72;4943783;29;20122;-74
2023/09/06 10:42:09;;;;;;;4.88;1.90;;;;;;;23.29;57.26;101922.28;4944245;28;20035;-77
2023/09/06 10:44:56;;;;;;;6.07;2.10;;;;;;;23.32;57.59;101921.16;4945740;29;20041;-77
2023/09/06 10:47:24;;;;;;;5.32;1.98;;;;;;;23.33;57.33;101926.34;4946411;29;20399;-75
2023/09/06 10:50:12;;;;;;;4.55;2.60;;;;;;;23.28;57.42;101915.25;4942933;28;20488;-81
2023/09/06 10:52:48;;;;;;;4.70;2.25;;;;;;;23.23;57.56;101920.16;4941925;28;20508;-73
2023/09/06 10:55:19;;;;;;;6.15;2.10;;;;;;;23.21;57.52;101915.94;4941868;29;20050;-77
2023/09/06 10:57:47;;;;;;;4.57;2.40;;;;;;;23.20;57.34;101912.44;4940507;28;20082;-71
2023/09/06 11:00:19;;;;;;;5.53;2.20;;;;;;;23.18;57.36;101911.72;4940855;28;20138;-71
2023/09/06 11:03:04;;;;;;;4.00;2.00;;;;;;;23.16;57.86;101913.66;4941939;28;20054;-70
2023/09/06 11:05:38;;;;;;;7.30;2.35;;;;;;;23.15;57.78;101915.50;4941684;29;20307;-71
2023/09/06 11:08:04;;;;;;;12.77;2.83;;;;;;;23.15;57.61;101918.16;4942372;29;20035;-72
2023/09/06 11:10:30;;;;;;;4.25;1.85;;;;;;;23.16;57.71;101911.00;4942178;28;20046;-72
2023/09/06 11:12:57;;;;;;;5.45;2.22;;;;;;;23.20;57.26;101912.44;4943578;28;20039;-74
2023/09/06 11:15:23;;;;;;;5.25;2.47;;;;;;;23.22;57.53;101909.66;4943492;28;20105;-76
2023/09/06 11:17:49;;;;;;;5.10;2.17;;;;;;;23.23;57.71;101911.34;4944669;28;20058;-77
2023/09/06 11:20:16;;;;;;;4.82;2.00;;;;;;;23.23;57.62;101908.69;4945782;29;20031;-75
2023/09/06 11:22:56;;;;;;;7.20;2.30;;;;;;;23.22;57.92;101897.19;4945951;28;20180;-76
2023/09/06 11:25:23;;;;;;;4.85;2.25;;;;;;;23.26;57.54;101895.94;4947598;28;20042;-78
2023/09/06 11:27:50;;;;;;;5.25;2.10;;;;;;;23.28;57.65;101901.97;4945155;28;20485;-77